KVJI

Details ICAO KVJI
Name Virginia Highlands
Region United States
Timezone America/New_York (UTC-5.0)
Plans Departing 1
Arriving 6
Stats Elevation 2,087 ft / 636 m (AMSL)
Location 36.687103° -82.033327°
Runways 1
Magnetic Variation 7.207° W
Sunrise 2017-12-17 12:36:05 UTC / 2017-12-17 07:36:05 Local
Sunset 2017-12-17 22:15:23 UTC / 2017-12-17 17:15:23 Local
Advertisement - Login to hide

Runways

ID Width Length Bearing (true) Bearing (mag) Surface Threshold Offset Overrun Length
06 75 ft / 23 m 4,467 ft / 1,361 m 55.90° 63.11° Asphalt 0 ft / 0 m 98 ft / 30 m
24 75 ft / 23 m 4,467 ft / 1,361 m 235.91° 243.12° Asphalt 0 ft / 0 m 0 ft / 0 m

Approach Navaids

Runway Type Ident Frequency Range Bearing (true) Bearing (mag) Slope Elevation
24 Localiser IVJI 108.30 MHz 18 nm / 33 km 235.90° 243.11° - 2,087 ft / 636 m (AMSL)
24 DME IVJI 108.30 MHz 18 nm / 33 km - - - 2,087 ft / 636 m (AMSL)

Map

Weather


0- 5 10 15 20 25 30 35+ Temperature / ° C

Clouds and Precipitation
Forecast for 2017-12-17 18:00 UTC. Updated an hour ago

Ground ~20,000 ft ~40,000 ft Winds

METAR

KVJI 171555Z AUTO 06004KT 10SM SCT033 SCT080 OVC100 04/M01 A3023 RMK AO2 T00401009

TAF

Not found

Frequencies

Recorded 128.12 MHz AWOS 3
Unicom 122.80 MHz CTAF/UNICOM
Warning: Do not use this data for real-world aviation or navigation. No guarantee of current accuracy is given.